sensor_id;sensor_type;location;lat;lon;timestamp;P1;durP1;ratioP1;P2;durP2;ratioP2
35223;SDS011;21367;51.930;8.112;2023-07-13T00:03:33;85.82;;;78.80;;
35223;SDS011;21367;51.930;8.112;2023-07-13T00:08:40;104.32;;;95.97;;
35223;SDS011;21367;51.930;8.112;2023-07-13T00:13:44;133.30;;;123.28;;
35223;SDS011;21367;51.930;8.112;2023-07-13T00:18:47;176.40;;;163.07;;
35223;SDS011;21367;51.930;8.112;2023-07-13T00:23:55;198.20;;;184.03;;
35223;SDS011;21367;51.930;8.112;2023-07-13T00:29:00;174.73;;;161.30;;
35223;SDS011;21367;51.930;8.112;2023-07-13T00:34:06;192.55;;;177.98;;
35223;SDS011;21367;51.930;8.112;2023-07-13T00:39:13;177.07;;;163.45;;
35223;SDS011;21367;51.930;8.112;2023-07-13T00:44:17;180.18;;;166.68;;
35223;SDS011;21367;51.930;8.112;2023-07-13T00:49:24;165.85;;;152.98;;
35223;SDS011;21367;51.930;8.112;2023-07-13T00:54:33;192.57;;;177.40;;
35223;SDS011;21367;51.930;8.112;2023-07-13T00:59:40;182.77;;;168.32;;
35223;SDS011;21367;51.930;8.112;2023-07-13T01:04:46;143.07;;;132.45;;
35223;SDS011;21367;51.930;8.112;2023-07-13T01:09:52;104.68;;;96.13;;
35223;SDS011;21367;51.930;8.112;2023-07-13T01:14:57;207.20;;;190.73;;
35223;SDS011;21367;51.930;8.112;2023-07-13T01:20:01;19.52;;;10.30;;
35223;SDS011;21367;51.930;8.112;2023-07-13T01:25:08;21.25;;;9.80;;
35223;SDS011;21367;51.930;8.112;2023-07-13T01:30:12;15.10;;;6.57;;
35223;SDS011;21367;51.930;8.112;2023-07-13T01:35:16;13.95;;;6.60;;
35223;SDS011;21367;51.930;8.112;2023-07-13T01:40:28;14.52;;;6.53;;
35223;SDS011;21367;51.930;8.112;2023-07-13T01:45:32;23.15;;;8.27;;
35223;SDS011;21367;51.930;8.112;2023-07-13T01:50:36;22.65;;;11.52;;
35223;SDS011;21367;51.930;8.112;2023-07-13T01:55:44;85.25;;;77.25;;
35223;SDS011;21367;51.930;8.112;2023-07-13T02:00:48;30.65;;;24.85;;
35223;SDS011;21367;51.930;8.112;2023-07-13T02:05:53;80.35;;;72.28;;
35223;SDS011;21367;51.930;8.112;2023-07-13T02:10:59;183.57;;;165.60;;
35223;SDS011;21367;51.930;8.112;2023-07-13T02:16:03;251.75;;;229.55;;
35223;SDS011;21367;51.930;8.112;2023-07-13T02:21:07;277.58;;;254.32;;
35223;SDS011;21367;51.930;8.112;2023-07-13T02:26:13;247.05;;;226.02;;
35223;SDS011;21367;51.930;8.112;2023-07-13T02:31:17;228.90;;;208.95;;
35223;SDS011;21367;51.930;8.112;2023-07-13T02:36:21;229.55;;;208.77;;
35223;SDS011;21367;51.930;8.112;2023-07-13T02:41:27;235.95;;;214.85;;
35223;SDS011;21367;51.930;8.112;2023-07-13T02:46:31;236.27;;;215.50;;
35223;SDS011;21367;51.930;8.112;2023-07-13T02:51:35;287.52;;;261.13;;
35223;SDS011;21367;51.930;8.112;2023-07-13T02:56:41;321.60;;;292.02;;
35223;SDS011;21367;51.930;8.112;2023-07-13T03:01:46;334.30;;;303.15;;
35223;SDS011;21367;51.930;8.112;2023-07-13T03:06:49;361.50;;;327.40;;
35223;SDS011;21367;51.930;8.112;2023-07-13T03:11:56;354.90;;;321.13;;
35223;SDS011;21367;51.930;8.112;2023-07-13T03:17:03;300.92;;;272.15;;
35223;SDS011;21367;51.930;8.112;2023-07-13T03:22:11;318.90;;;286.90;;
35223;SDS011;21367;51.930;8.112;2023-07-13T03:27:19;632.10;;;562.33;;
35223;SDS011;21367;51.930;8.112;2023-07-13T03:32:23;319.90;;;289.42;;
35223;SDS011;21367;51.930;8.112;2023-07-13T03:37:28;659.80;;;541.17;;
35223;SDS011;21367;51.930;8.112;2023-07-13T03:42:34;298.00;;;269.27;;
35223;SDS011;21367;51.930;8.112;2023-07-13T03:47:38;371.17;;;334.35;;
35223;SDS011;21367;51.930;8.112;2023-07-13T03:52:42;404.20;;;362.52;;
35223;SDS011;21367;51.930;8.112;2023-07-13T03:57:53;410.98;;;370.75;;
35223;SDS011;21367;51.930;8.112;2023-07-13T04:03:03;380.83;;;341.48;;
35223;SDS011;21367;51.930;8.112;2023-07-13T04:08:07;286.30;;;255.38;;
35223;SDS011;21367;51.930;8.112;2023-07-13T04:13:13;223.60;;;159.50;;
35223;SDS011;21367;51.930;8.112;2023-07-13T04:23:20;130.75;;;92.90;;
35223;SDS011;21367;51.930;8.112;2023-07-13T04:28:26;166.15;;;136.68;;
35223;SDS011;21367;51.930;8.112;2023-07-13T04:33:30;269.90;;;243.93;;
35223;SDS011;21367;51.930;8.112;2023-07-13T04:38:35;264.33;;;237.55;;
35223;SDS011;21367;51.930;8.112;2023-07-13T04:43:42;338.80;;;304.20;;
35223;SDS011;21367;51.930;8.112;2023-07-13T04:48:46;508.45;;;453.00;;
35223;SDS011;21367;51.930;8.112;2023-07-13T04:53:53;342.35;;;306.55;;
35223;SDS011;21367;51.930;8.112;2023-07-13T04:59:00;467.05;;;417.13;;
35223;SDS011;21367;51.930;8.112;2023-07-13T05:04:03;346.48;;;311.08;;
35223;SDS011;21367;51.930;8.112;2023-07-13T05:09:07;306.08;;;264.40;;
35223;SDS011;21367;51.930;8.112;2023-07-13T05:14:13;292.35;;;262.38;;
35223;SDS011;21367;51.930;8.112;2023-07-13T05:19:17;283.38;;;234.13;;
35223;SDS011;21367;51.930;8.112;2023-07-13T05:24:20;396.67;;;312.77;;
35223;SDS011;21367;51.930;8.112;2023-07-13T05:29:27;359.52;;;319.88;;
35223;SDS011;21367;51.930;8.112;2023-07-13T05:34:31;140.50;;;86.50;;
35223;SDS011;21367;51.930;8.112;2023-07-13T05:39:34;157.80;;;140.60;;
35223;SDS011;21367;51.930;8.112;2023-07-13T05:44:41;211.90;;;187.77;;
35223;SDS011;21367;51.930;8.112;2023-07-13T05:49:45;146.25;;;131.43;;
35223;SDS011;21367;51.930;8.112;2023-07-13T05:54:49;305.02;;;273.42;;
35223;SDS011;21367;51.930;8.112;2023-07-13T05:59:55;641.15;;;560.97;;
35223;SDS011;21367;51.930;8.112;2023-07-13T06:10:02;579.90;;;426.95;;
35223;SDS011;21367;51.930;8.112;2023-07-13T06:15:10;170.48;;;121.78;;
35223;SDS011;21367;51.930;8.112;2023-07-13T06:20:14;126.47;;;113.78;;
35223;SDS011;21367;51.930;8.112;2023-07-13T06:25:18;97.75;;;87.20;;
35223;SDS011;21367;51.930;8.112;2023-07-13T06:30:24;347.33;;;250.32;;
35223;SDS011;21367;51.930;8.112;2023-07-13T06:35:28;232.95;;;201.90;;
35223;SDS011;21367;51.930;8.112;2023-07-13T06:40:32;471.80;;;388.23;;
35223;SDS011;21367;51.930;8.112;2023-07-13T06:45:39;209.27;;;189.55;;
35223;SDS011;21367;51.930;8.112;2023-07-13T06:50:48;238.85;;;216.35;;
35223;SDS011;21367;51.930;8.112;2023-07-13T06:55:53;296.77;;;268.33;;
35223;SDS011;21367;51.930;8.112;2023-07-13T07:01:00;394.25;;;349.35;;
35223;SDS011;21367;51.930;8.112;2023-07-13T07:11:17;177.15;;;160.18;;
35223;SDS011;21367;51.930;8.112;2023-07-13T07:16:25;309.55;;;280.88;;
35223;SDS011;21367;51.930;8.112;2023-07-13T07:21:28;245.80;;;223.15;;
35223;SDS011;21367;51.930;8.112;2023-07-13T07:26:32;338.75;;;307.45;;
35223;SDS011;21367;51.930;8.112;2023-07-13T07:31:39;306.13;;;278.23;;
35223;SDS011;21367;51.930;8.112;2023-07-13T07:41:46;268.45;;;242.30;;
35223;SDS011;21367;51.930;8.112;2023-07-13T07:46:55;124.57;;;111.50;;
35223;SDS011;21367;51.930;8.112;2023-07-13T07:51:58;289.80;;;233.85;;
35223;SDS011;21367;51.930;8.112;2023-07-13T07:57:02;131.07;;;118.40;;
35223;SDS011;21367;51.930;8.112;2023-07-13T08:02:13;61.47;;;54.08;;
35223;SDS011;21367;51.930;8.112;2023-07-13T08:07:16;178.45;;;161.43;;
35223;SDS011;21367;51.930;8.112;2023-07-13T08:12:20;170.10;;;123.57;;
35223;SDS011;21367;51.930;8.112;2023-07-13T08:17:26;64.95;;;51.25;;
35223;SDS011;21367;51.930;8.112;2023-07-13T08:22:30;68.32;;;60.63;;
35223;SDS011;21367;51.930;8.112;2023-07-13T08:27:34;188.07;;;161.85;;
35223;SDS011;21367;51.930;8.112;2023-07-13T08:32:40;65.35;;;57.42;;
35223;SDS011;21367;51.930;8.112;2023-07-13T08:37:44;76.80;;;69.28;;
35223;SDS011;21367;51.930;8.112;2023-07-13T08:42:49;69.85;;;62.35;;
35223;SDS011;21367;51.930;8.112;2023-07-13T08:48:01;39.20;;;30.17;;
35223;SDS011;21367;51.930;8.112;2023-07-13T08:53:07;55.90;;;44.83;;
35223;SDS011;21367;51.930;8.112;2023-07-13T08:58:16;65.10;;;58.15;;
35223;SDS011;21367;51.930;8.112;2023-07-13T09:03:24;44.92;;;38.30;;
35223;SDS011;21367;51.930;8.112;2023-07-13T09:08:38;77.70;;;64.55;;
35223;SDS011;21367;51.930;8.112;2023-07-13T09:13:53;114.60;;;99.22;;
35223;SDS011;21367;51.930;8.112;2023-07-13T09:19:07;53.00;;;41.97;;
35223;SDS011;21367;51.930;8.112;2023-07-13T09:24:27;107.00;;;96.15;;
35223;SDS011;21367;51.930;8.112;2023-07-13T09:29:40;68.10;;;61.67;;
35223;SDS011;21367;51.930;8.112;2023-07-13T09:34:54;70.07;;;63.47;;
35223;SDS011;21367;51.930;8.112;2023-07-13T09:39:59;69.53;;;63.03;;
35223;SDS011;21367;51.930;8.112;2023-07-13T09:45:09;45.17;;;40.38;;
35223;SDS011;21367;51.930;8.112;2023-07-13T09:50:16;55.38;;;46.00;;
35223;SDS011;21367;51.930;8.112;2023-07-13T09:55:24;39.83;;;35.67;;
35223;SDS011;21367;51.930;8.112;2023-07-13T10:00:29;116.75;;;105.32;;
35223;SDS011;21367;51.930;8.112;2023-07-13T10:05:40;57.88;;;51.10;;
35223;SDS011;21367;51.930;8.112;2023-07-13T10:10:45;47.05;;;42.28;;
35223;SDS011;21367;51.930;8.112;2023-07-13T10:15:49;77.10;;;68.93;;
35223;SDS011;21367;51.930;8.112;2023-07-13T10:20:58;50.63;;;45.42;;
35223;SDS011;21367;51.930;8.112;2023-07-13T10:26:25;79.80;;;72.47;;
35223;SDS011;21367;51.930;8.112;2023-07-13T10:31:32;35.25;;;30.02;;
35223;SDS011;21367;51.930;8.112;2023-07-13T10:36:43;37.45;;;32.17;;
35223;SDS011;21367;51.930;8.112;2023-07-13T10:41:48;39.20;;;35.25;;
35223;SDS011;21367;51.930;8.112;2023-07-13T10:46:56;42.72;;;38.92;;
35223;SDS011;21367;51.930;8.112;2023-07-13T10:52:05;98.65;;;88.85;;
35223;SDS011;21367;51.930;8.112;2023-07-13T10:57:19;44.95;;;39.72;;
35223;SDS011;21367;51.930;8.112;2023-07-13T11:02:25;54.50;;;49.07;;
35223;SDS011;21367;51.930;8.112;2023-07-13T11:07:32;53.45;;;48.05;;
35223;SDS011;21367;51.930;8.112;2023-07-13T11:12:56;43.75;;;39.20;;
35223;SDS011;21367;51.930;8.112;2023-07-13T11:18:02;51.22;;;46.10;;
35223;SDS011;21367;51.930;8.112;2023-07-13T11:23:19;47.25;;;42.35;;
35223;SDS011;21367;51.930;8.112;2023-07-13T11:28:33;32.97;;;29.83;;
35223;SDS011;21367;51.930;8.112;2023-07-13T11:33:49;39.55;;;34.17;;
35223;SDS011;21367;51.930;8.112;2023-07-13T11:39:00;45.55;;;32.75;;
35223;SDS011;21367;51.930;8.112;2023-07-13T11:44:10;47.25;;;42.60;;
35223;SDS011;21367;51.930;8.112;2023-07-13T11:49:16;106.80;;;96.60;;
35223;SDS011;21367;51.930;8.112;2023-07-13T11:54:27;41.77;;;37.73;;
35223;SDS011;21367;51.930;8.112;2023-07-13T11:59:36;37.33;;;34.15;;
35223;SDS011;21367;51.930;8.112;2023-07-13T12:04:43;49.47;;;44.78;;
35223;SDS011;21367;51.930;8.112;2023-07-13T12:19:58;45.35;;;41.60;;
35223;SDS011;21367;51.930;8.112;2023-07-13T12:25:04;46.00;;;41.85;;
35223;SDS011;21367;51.930;8.112;2023-07-13T12:30:21;48.70;;;44.58;;
35223;SDS011;21367;51.930;8.112;2023-07-13T12:35:29;54.80;;;50.40;;
35223;SDS011;21367;51.930;8.112;2023-07-13T12:40:38;70.60;;;64.35;;
35223;SDS011;21367;51.930;8.112;2023-07-13T12:45:54;66.20;;;60.92;;
35223;SDS011;21367;51.930;8.112;2023-07-13T12:51:00;59.88;;;55.10;;
35223;SDS011;21367;51.930;8.112;2023-07-13T12:56:08;60.35;;;55.42;;
35223;SDS011;21367;51.930;8.112;2023-07-13T13:01:20;330.27;;;303.45;;
35223;SDS011;21367;51.930;8.112;2023-07-13T13:06:27;65.75;;;60.50;;
35223;SDS011;21367;51.930;8.112;2023-07-13T13:11:34;67.70;;;62.15;;
35223;SDS011;21367;51.930;8.112;2023-07-13T13:16:44;59.20;;;54.22;;
35223;SDS011;21367;51.930;8.112;2023-07-13T13:21:52;68.65;;;62.95;;
35223;SDS011;21367;51.930;8.112;2023-07-13T13:27:00;58.70;;;53.15;;
35223;SDS011;21367;51.930;8.112;2023-07-13T13:32:04;40.50;;;36.67;;
35223;SDS011;21367;51.930;8.112;2023-07-13T13:37:16;37.83;;;34.25;;
35223;SDS011;21367;51.930;8.112;2023-07-13T13:42:25;43.38;;;39.08;;
35223;SDS011;21367;51.930;8.112;2023-07-13T13:47:30;56.33;;;38.50;;
35223;SDS011;21367;51.930;8.112;2023-07-13T13:52:36;46.42;;;41.67;;
35223;SDS011;21367;51.930;8.112;2023-07-13T13:57:43;54.00;;;48.78;;
35223;SDS011;21367;51.930;8.112;2023-07-13T14:02:47;41.88;;;37.65;;
35223;SDS011;21367;51.930;8.112;2023-07-13T14:07:52;38.58;;;34.55;;
35223;SDS011;21367;51.930;8.112;2023-07-13T14:12:59;42.58;;;38.33;;
35223;SDS011;21367;51.930;8.112;2023-07-13T14:18:07;45.35;;;40.80;;
35223;SDS011;21367;51.930;8.112;2023-07-13T14:23:12;42.58;;;38.05;;
35223;SDS011;21367;51.930;8.112;2023-07-13T14:28:23;53.38;;;48.17;;
35223;SDS011;21367;51.930;8.112;2023-07-13T14:33:29;51.75;;;47.05;;
35223;SDS011;21367;51.930;8.112;2023-07-13T14:38:33;65.38;;;58.65;;
35223;SDS011;21367;51.930;8.112;2023-07-13T14:43:39;58.38;;;52.75;;
35223;SDS011;21367;51.930;8.112;2023-07-13T14:48:43;58.53;;;52.85;;
35223;SDS011;21367;51.930;8.112;2023-07-13T14:53:46;158.32;;;146.05;;
35223;SDS011;21367;51.930;8.112;2023-07-13T14:58:53;46.63;;;40.55;;
35223;SDS011;21367;51.930;8.112;2023-07-13T15:03:56;44.95;;;40.60;;
35223;SDS011;21367;51.930;8.112;2023-07-13T15:09:01;51.80;;;46.03;;
35223;SDS011;21367;51.930;8.112;2023-07-13T15:14:07;58.20;;;52.30;;
35223;SDS011;21367;51.930;8.112;2023-07-13T15:24:14;98.38;;;88.40;;
35223;SDS011;21367;51.930;8.112;2023-07-13T15:29:21;56.55;;;50.70;;
35223;SDS011;21367;51.930;8.112;2023-07-13T15:34:25;79.65;;;71.88;;
35223;SDS011;21367;51.930;8.112;2023-07-13T15:39:29;108.93;;;98.10;;
35223;SDS011;21367;51.930;8.112;2023-07-13T15:44:36;156.25;;;142.43;;
35223;SDS011;21367;51.930;8.112;2023-07-13T15:49:40;104.55;;;95.72;;
35223;SDS011;21367;51.930;8.112;2023-07-13T15:54:44;86.43;;;78.85;;
35223;SDS011;21367;51.930;8.112;2023-07-13T15:59:51;91.22;;;84.07;;
35223;SDS011;21367;51.930;8.112;2023-07-13T16:04:54;93.93;;;86.00;;
35223;SDS011;21367;51.930;8.112;2023-07-13T16:10:02;104.50;;;95.45;;
35223;SDS011;21367;51.930;8.112;2023-07-13T16:20:19;123.30;;;113.30;;
35223;SDS011;21367;51.930;8.112;2023-07-13T16:25:24;138.80;;;127.07;;
35223;SDS011;21367;51.930;8.112;2023-07-13T16:30:34;111.78;;;101.82;;
35223;SDS011;21367;51.930;8.112;2023-07-13T16:35:39;105.50;;;96.43;;
35223;SDS011;21367;51.930;8.112;2023-07-13T16:40:46;158.18;;;144.93;;
35223;SDS011;21367;51.930;8.112;2023-07-13T16:45:53;139.65;;;127.30;;
35223;SDS011;21367;51.930;8.112;2023-07-13T16:51:03;138.65;;;126.93;;
35223;SDS011;21367;51.930;8.112;2023-07-13T16:56:08;138.75;;;127.20;;
35223;SDS011;21367;51.930;8.112;2023-07-13T17:01:20;142.98;;;131.07;;
35223;SDS011;21367;51.930;8.112;2023-07-13T17:06:24;135.95;;;124.68;;
35223;SDS011;21367;51.930;8.112;2023-07-13T17:11:27;139.73;;;127.93;;
35223;SDS011;21367;51.930;8.112;2023-07-13T17:16:35;116.20;;;105.90;;
35223;SDS011;21367;51.930;8.112;2023-07-13T17:21:39;145.70;;;133.27;;
35223;SDS011;21367;51.930;8.112;2023-07-13T17:26:43;114.93;;;104.45;;
35223;SDS011;21367;51.930;8.112;2023-07-13T17:31:49;91.30;;;83.03;;
35223;SDS011;21367;51.930;8.112;2023-07-13T17:36:54;107.85;;;97.72;;
35223;SDS011;21367;51.930;8.112;2023-07-13T17:41:59;187.20;;;169.73;;
35223;SDS011;21367;51.930;8.112;2023-07-13T17:47:05;123.47;;;110.88;;
35223;SDS011;21367;51.930;8.112;2023-07-13T17:52:15;162.98;;;146.73;;
35223;SDS011;21367;51.930;8.112;2023-07-13T17:57:19;128.57;;;115.63;;
35223;SDS011;21367;51.930;8.112;2023-07-13T18:02:25;80.28;;;71.95;;
35223;SDS011;21367;51.930;8.112;2023-07-13T18:07:32;82.43;;;73.93;;
35223;SDS011;21367;51.930;8.112;2023-07-13T18:12:35;121.65;;;110.10;;
35223;SDS011;21367;51.930;8.112;2023-07-13T18:17:45;95.43;;;86.45;;
35223;SDS011;21367;51.930;8.112;2023-07-13T18:22:51;106.10;;;96.38;;
35223;SDS011;21367;51.930;8.112;2023-07-13T18:27:55;112.03;;;101.90;;
35223;SDS011;21367;51.930;8.112;2023-07-13T18:33:01;94.22;;;85.57;;
35223;SDS011;21367;51.930;8.112;2023-07-13T18:38:07;133.90;;;122.60;;
35223;SDS011;21367;51.930;8.112;2023-07-13T18:43:19;109.43;;;99.60;;
35223;SDS011;21367;51.930;8.112;2023-07-13T18:48:26;72.70;;;65.60;;
35223;SDS011;21367;51.930;8.112;2023-07-13T18:53:33;59.60;;;53.80;;
35223;SDS011;21367;51.930;8.112;2023-07-13T18:58:37;66.40;;;59.60;;
35223;SDS011;21367;51.930;8.112;2023-07-13T19:03:45;49.03;;;43.80;;
35223;SDS011;21367;51.930;8.112;2023-07-13T19:08:51;48.63;;;39.75;;
35223;SDS011;21367;51.930;8.112;2023-07-13T19:13:55;44.63;;;39.40;;
35223;SDS011;21367;51.930;8.112;2023-07-13T19:19:04;51.60;;;46.53;;
35223;SDS011;21367;51.930;8.112;2023-07-13T19:24:15;47.88;;;43.30;;
35223;SDS011;21367;51.930;8.112;2023-07-13T19:29:22;34.78;;;30.33;;
35223;SDS011;21367;51.930;8.112;2023-07-13T19:34:32;72.20;;;63.97;;
35223;SDS011;21367;51.930;8.112;2023-07-13T19:39:37;145.30;;;132.77;;
35223;SDS011;21367;51.930;8.112;2023-07-13T19:44:42;112.60;;;103.30;;
35223;SDS011;21367;51.930;8.112;2023-07-13T19:49:48;97.43;;;88.97;;
35223;SDS011;21367;51.930;8.112;2023-07-13T19:54:54;100.97;;;92.15;;
35223;SDS011;21367;51.930;8.112;2023-07-13T19:59:59;106.50;;;97.65;;
35223;SDS011;21367;51.930;8.112;2023-07-13T20:05:06;154.65;;;141.98;;
35223;SDS011;21367;51.930;8.112;2023-07-13T20:10:15;147.77;;;135.50;;
35223;SDS011;21367;51.930;8.112;2023-07-13T20:15:23;127.20;;;116.55;;
35223;SDS011;21367;51.930;8.112;2023-07-13T20:20:32;111.90;;;102.57;;
35223;SDS011;21367;51.930;8.112;2023-07-13T20:25:37;123.63;;;113.30;;
35223;SDS011;21367;51.930;8.112;2023-07-13T20:30:42;118.68;;;108.93;;
35223;SDS011;21367;51.930;8.112;2023-07-13T20:35:51;212.90;;;194.73;;
35223;SDS011;21367;51.930;8.112;2023-07-13T20:40:56;116.82;;;105.47;;
35223;SDS011;21367;51.930;8.112;2023-07-13T20:46:00;203.40;;;184.65;;
35223;SDS011;21367;51.930;8.112;2023-07-13T20:51:11;89.70;;;81.95;;
35223;SDS011;21367;51.930;8.112;2023-07-13T20:56:17;68.47;;;61.67;;
35223;SDS011;21367;51.930;8.112;2023-07-13T21:01:22;92.53;;;83.90;;
35223;SDS011;21367;51.930;8.112;2023-07-13T21:06:32;101.18;;;90.63;;
35223;SDS011;21367;51.930;8.112;2023-07-13T21:11:36;57.15;;;51.25;;
35223;SDS011;21367;51.930;8.112;2023-07-13T21:16:40;76.40;;;69.63;;
35223;SDS011;21367;51.930;8.112;2023-07-13T21:21:46;130.48;;;119.75;;
35223;SDS011;21367;51.930;8.112;2023-07-13T21:26:50;39.85;;;36.10;;
35223;SDS011;21367;51.930;8.112;2023-07-13T21:31:54;19.60;;;16.27;;
35223;SDS011;21367;51.930;8.112;2023-07-13T21:37:00;39.22;;;35.53;;
35223;SDS011;21367;51.930;8.112;2023-07-13T21:42:04;38.22;;;35.03;;
35223;SDS011;21367;51.930;8.112;2023-07-13T21:47:08;59.40;;;53.97;;
35223;SDS011;21367;51.930;8.112;2023-07-13T21:52:17;17.47;;;10.90;;
35223;SDS011;21367;51.930;8.112;2023-07-13T21:57:21;16.77;;;11.98;;
35223;SDS011;21367;51.930;8.112;2023-07-13T22:02:29;24.83;;;18.58;;
35223;SDS011;21367;51.930;8.112;2023-07-13T22:07:35;21.00;;;16.40;;
35223;SDS011;21367;51.930;8.112;2023-07-13T22:12:39;23.77;;;15.95;;
35223;SDS011;21367;51.930;8.112;2023-07-13T22:17:44;20.08;;;16.05;;
35223;SDS011;21367;51.930;8.112;2023-07-13T22:22:52;22.98;;;20.50;;
35223;SDS011;21367;51.930;8.112;2023-07-13T22:27:57;25.65;;;23.13;;
35223;SDS011;21367;51.930;8.112;2023-07-13T22:33:00;24.67;;;22.20;;
35223;SDS011;21367;51.930;8.112;2023-07-13T22:38:10;23.05;;;16.40;;
35223;SDS011;21367;51.930;8.112;2023-07-13T22:43:17;19.83;;;17.60;;
35223;SDS011;21367;51.930;8.112;2023-07-13T22:48:24;31.90;;;26.23;;
35223;SDS011;21367;51.930;8.112;2023-07-13T22:53:32;33.20;;;29.95;;
35223;SDS011;21367;51.930;8.112;2023-07-13T22:58:37;40.13;;;36.38;;
35223;SDS011;21367;51.930;8.112;2023-07-13T23:03:43;32.10;;;28.80;;
35223;SDS011;21367;51.930;8.112;2023-07-13T23:08:49;34.70;;;31.08;;
35223;SDS011;21367;51.930;8.112;2023-07-13T23:13:53;32.13;;;29.02;;
35223;SDS011;21367;51.930;8.112;2023-07-13T23:18:58;37.35;;;33.63;;
35223;SDS011;21367;51.930;8.112;2023-07-13T23:24:08;34.10;;;30.70;;
35223;SDS011;21367;51.930;8.112;2023-07-13T23:29:15;30.95;;;27.40;;
35223;SDS011;21367;51.930;8.112;2023-07-13T23:34:20;29.88;;;26.90;;
35223;SDS011;21367;51.930;8.112;2023-07-13T23:39:27;27.85;;;25.15;;
35223;SDS011;21367;51.930;8.112;2023-07-13T23:44:31;29.95;;;26.90;;
35223;SDS011;21367;51.930;8.112;2023-07-13T23:49:35;30.92;;;25.60;;
35223;SDS011;21367;51.930;8.112;2023-07-13T23:54:41;23.02;;;20.55;;
35223;SDS011;21367;51.930;8.112;2023-07-13T23:59:45;25.13;;;17.23;;
